Startpagina
METAR-TAF:

METAR-TAF

Vliegvelden :

Teheran, Iran

Teheran Mehrabad International Airport

breedte: 35-41N, lengte: 051-21E, hoogte: 1204 m

Actueel weer

Dit bericht is 16 minuten geleden gemaakt, om 06:30 UTC
Wind 8 kt uit het zuidwesten
Temperatuur 32°C
Vochtigheid 13%
Druk 1016 hPa
Zicht 10 km of meer
geen wolken onder 1500 m en geen cumulonimbus

METAR: OIII 220630Z 22008KT CAVOK 32/00 Q1016 A3001 NOSIG

Tijdstip: 11:16 (06:46 UTC)

Verwachting

Dit bericht is 1 uur en het 46 minuten geleden gemaakt, om 05:00 UTC
Verwachting geldig van 22 om 06 UTC tot 23 om 12 UTC
Wind 10 kt uit het westzuidwesten
Zicht 10 km of meer
geen wolken onder 1500 m en geen cumulonimbus
Wijzigt naar
van 22 om 18 UTC tot 22 om 20 UTC
Wind 8 kt uit het noordnoordoosten
Wijzigt naar
van 23 om 06 UTC tot 23 om 08 UTC
Wind 10 kt uit het zuidoosten

TAF: OIII 220500Z 2206/2312 24005MPS CAVOK BECMG 2218/2220 03004MPS BECMG 2306/2308 14005MPS

Waarnemingen en weersverwachtingen van meer dan 4000 vliegvelden (METAR en TAF).

De beschikbare stations zijn de gele en rode punten op de kaart.

Ga met uw muis naar het station om de naam te zien.

Klik dan om waarnemingen en weersverwachtingen te zien.

kaart wijzigen: klik op de groene knoppen met een zwart kruis om in te zoomen, op de groene knop met een streepje om uit te zoomen of op de groene pijlen voor aangrenzende kaarten.


METAR-TAF: